sensor_id;sensor_type;location;lat;lon;timestamp;P1;durP1;ratioP1;P2;durP2;ratioP2
31728;SDS011;18309;43.658;1.312;2022-07-17T00:00:41;3.47;;;1.50;;
31728;SDS011;18309;43.658;1.312;2022-07-17T00:03:08;7.18;;;1.50;;
31728;SDS011;18309;43.658;1.312;2022-07-17T00:05:35;6.82;;;1.40;;
31728;SDS011;18309;43.658;1.312;2022-07-17T00:08:01;5.40;;;1.58;;
31728;SDS011;18309;43.658;1.312;2022-07-17T00:10:26;8.65;;;1.77;;
31728;SDS011;18309;43.658;1.312;2022-07-17T00:12:52;5.22;;;1.40;;
31728;SDS011;18309;43.658;1.312;2022-07-17T00:15:18;4.38;;;1.70;;
31728;SDS011;18309;43.658;1.312;2022-07-17T00:17:44;2.90;;;1.60;;
31728;SDS011;18309;43.658;1.312;2022-07-17T00:20:10;2.08;;;1.50;;
31728;SDS011;18309;43.658;1.312;2022-07-17T00:22:36;3.35;;;1.80;;
31728;SDS011;18309;43.658;1.312;2022-07-17T00:25:03;7.88;;;1.92;;
31728;SDS011;18309;43.658;1.312;2022-07-17T00:27:29;3.00;;;1.70;;
31728;SDS011;18309;43.658;1.312;2022-07-17T00:29:55;5.35;;;1.65;;
31728;SDS011;18309;43.658;1.312;2022-07-17T00:32:21;3.20;;;1.38;;
31728;SDS011;18309;43.658;1.312;2022-07-17T00:34:49;3.08;;;1.52;;
31728;SDS011;18309;43.658;1.312;2022-07-17T00:37:15;3.25;;;1.50;;
31728;SDS011;18309;43.658;1.312;2022-07-17T00:39:40;3.65;;;1.45;;
31728;SDS011;18309;43.658;1.312;2022-07-17T00:42:10;3.95;;;2.17;;
31728;SDS011;18309;43.658;1.312;2022-07-17T00:44:39;5.68;;;1.77;;
31728;SDS011;18309;43.658;1.312;2022-07-17T00:47:27;8.38;;;1.40;;
31728;SDS011;18309;43.658;1.312;2022-07-17T00:49:51;8.05;;;1.95;;
31728;SDS011;18309;43.658;1.312;2022-07-17T00:52:17;6.07;;;1.90;;
31728;SDS011;18309;43.658;1.312;2022-07-17T00:54:43;7.35;;;1.60;;
31728;SDS011;18309;43.658;1.312;2022-07-17T00:57:11;4.43;;;1.55;;
31728;SDS011;18309;43.658;1.312;2022-07-17T00:59:39;2.92;;;1.52;;
31728;SDS011;18309;43.658;1.312;2022-07-17T01:02:06;4.25;;;1.70;;
31728;SDS011;18309;43.658;1.312;2022-07-17T01:04:33;3.33;;;1.38;;
31728;SDS011;18309;43.658;1.312;2022-07-17T01:07:00;3.72;;;1.60;;
31728;SDS011;18309;43.658;1.312;2022-07-17T01:09:27;3.05;;;1.20;;
31728;SDS011;18309;43.658;1.312;2022-07-17T01:11:53;7.35;;;1.48;;
31728;SDS011;18309;43.658;1.312;2022-07-17T01:14:20;9.07;;;1.60;;
31728;SDS011;18309;43.658;1.312;2022-07-17T01:16:47;8.80;;;1.90;;
31728;SDS011;18309;43.658;1.312;2022-07-17T01:19:13;6.18;;;1.80;;
31728;SDS011;18309;43.658;1.312;2022-07-17T01:21:43;4.22;;;1.52;;
31728;SDS011;18309;43.658;1.312;2022-07-17T01:24:11;6.95;;;1.75;;
31728;SDS011;18309;43.658;1.312;2022-07-17T01:26:39;7.32;;;1.50;;
31728;SDS011;18309;43.658;1.312;2022-07-17T01:29:10;3.10;;;1.35;;
31728;SDS011;18309;43.658;1.312;2022-07-17T01:31:37;6.20;;;1.40;;
31728;SDS011;18309;43.658;1.312;2022-07-17T01:34:05;5.45;;;1.65;;
31728;SDS011;18309;43.658;1.312;2022-07-17T01:36:32;7.07;;;1.73;;
31728;SDS011;18309;43.658;1.312;2022-07-17T01:38:58;5.68;;;1.50;;
31728;SDS011;18309;43.658;1.312;2022-07-17T01:41:23;8.43;;;2.33;;
31728;SDS011;18309;43.658;1.312;2022-07-17T01:43:49;4.47;;;1.80;;
31728;SDS011;18309;43.658;1.312;2022-07-17T01:46:15;3.58;;;1.50;;
31728;SDS011;18309;43.658;1.312;2022-07-17T01:48:41;3.50;;;1.38;;
31728;SDS011;18309;43.658;1.312;2022-07-17T01:51:06;2.88;;;1.63;;
31728;SDS011;18309;43.658;1.312;2022-07-17T01:53:32;2.50;;;1.40;;
31728;SDS011;18309;43.658;1.312;2022-07-17T01:55:58;4.53;;;1.58;;
31728;SDS011;18309;43.658;1.312;2022-07-17T01:58:24;5.03;;;1.70;;
31728;SDS011;18309;43.658;1.312;2022-07-17T02:00:50;7.18;;;1.30;;
31728;SDS011;18309;43.658;1.312;2022-07-17T02:03:16;5.22;;;1.42;;
31728;SDS011;18309;43.658;1.312;2022-07-17T02:05:42;5.03;;;1.98;;
31728;SDS011;18309;43.658;1.312;2022-07-17T02:08:08;5.03;;;1.85;;
31728;SDS011;18309;43.658;1.312;2022-07-17T02:10:34;10.07;;;1.83;;
31728;SDS011;18309;43.658;1.312;2022-07-17T02:13:00;9.43;;;1.70;;
31728;SDS011;18309;43.658;1.312;2022-07-17T02:15:26;4.88;;;1.80;;
31728;SDS011;18309;43.658;1.312;2022-07-17T02:17:52;4.15;;;1.70;;
31728;SDS011;18309;43.658;1.312;2022-07-17T02:20:18;4.80;;;1.70;;
31728;SDS011;18309;43.658;1.312;2022-07-17T02:22:44;5.03;;;1.90;;
31728;SDS011;18309;43.658;1.312;2022-07-17T02:25:10;9.07;;;1.90;;
31728;SDS011;18309;43.658;1.312;2022-07-17T02:27:37;3.85;;;2.03;;
31728;SDS011;18309;43.658;1.312;2022-07-17T02:30:13;8.75;;;2.00;;
31728;SDS011;18309;43.658;1.312;2022-07-17T02:32:40;5.63;;;1.65;;
31728;SDS011;18309;43.658;1.312;2022-07-17T02:35:07;4.15;;;1.30;;
31728;SDS011;18309;43.658;1.312;2022-07-17T02:37:34;3.40;;;1.80;;
31728;SDS011;18309;43.658;1.312;2022-07-17T02:40:00;6.78;;;2.13;;
31728;SDS011;18309;43.658;1.312;2022-07-17T02:42:27;3.08;;;1.63;;
31728;SDS011;18309;43.658;1.312;2022-07-17T02:44:54;8.27;;;1.85;;
31728;SDS011;18309;43.658;1.312;2022-07-17T02:47:30;4.80;;;1.50;;
31728;SDS011;18309;43.658;1.312;2022-07-17T02:49:57;12.25;;;1.85;;
31728;SDS011;18309;43.658;1.312;2022-07-17T02:52:26;7.30;;;1.70;;
31728;SDS011;18309;43.658;1.312;2022-07-17T02:54:52;5.00;;;2.13;;
31728;SDS011;18309;43.658;1.312;2022-07-17T02:57:18;6.70;;;1.55;;
31728;SDS011;18309;43.658;1.312;2022-07-17T02:59:44;5.93;;;1.73;;
31728;SDS011;18309;43.658;1.312;2022-07-17T03:02:11;7.75;;;1.80;;
31728;SDS011;18309;43.658;1.312;2022-07-17T03:04:36;3.30;;;1.55;;
31728;SDS011;18309;43.658;1.312;2022-07-17T03:07:02;4.90;;;1.80;;
31728;SDS011;18309;43.658;1.312;2022-07-17T03:09:28;7.47;;;1.83;;
31728;SDS011;18309;43.658;1.312;2022-07-17T03:11:53;4.85;;;1.75;;
31728;SDS011;18309;43.658;1.312;2022-07-17T03:14:19;5.82;;;1.90;;
31728;SDS011;18309;43.658;1.312;2022-07-17T03:16:45;3.03;;;1.67;;
31728;SDS011;18309;43.658;1.312;2022-07-17T03:19:11;8.70;;;2.63;;
31728;SDS011;18309;43.658;1.312;2022-07-17T03:21:36;12.73;;;1.90;;
31728;SDS011;18309;43.658;1.312;2022-07-17T03:24:02;6.45;;;1.58;;
31728;SDS011;18309;43.658;1.312;2022-07-17T03:26:28;5.78;;;1.70;;
31728;SDS011;18309;43.658;1.312;2022-07-17T03:28:53;8.00;;;1.60;;
31728;SDS011;18309;43.658;1.312;2022-07-17T03:31:19;6.80;;;1.60;;
31728;SDS011;18309;43.658;1.312;2022-07-17T03:33:45;4.55;;;1.80;;
31728;SDS011;18309;43.658;1.312;2022-07-17T03:36:10;9.30;;;2.10;;
31728;SDS011;18309;43.658;1.312;2022-07-17T03:38:36;9.77;;;1.75;;
31728;SDS011;18309;43.658;1.312;2022-07-17T03:41:02;6.60;;;1.60;;
31728;SDS011;18309;43.658;1.312;2022-07-17T03:43:27;7.68;;;1.83;;
31728;SDS011;18309;43.658;1.312;2022-07-17T03:45:53;4.75;;;2.22;;
31728;SDS011;18309;43.658;1.312;2022-07-17T03:48:19;5.03;;;1.40;;
31728;SDS011;18309;43.658;1.312;2022-07-17T03:50:45;6.65;;;1.90;;
31728;SDS011;18309;43.658;1.312;2022-07-17T03:53:10;7.10;;;1.90;;
31728;SDS011;18309;43.658;1.312;2022-07-17T03:55:36;9.57;;;2.13;;
31728;SDS011;18309;43.658;1.312;2022-07-17T03:58:02;6.75;;;1.88;;
31728;SDS011;18309;43.658;1.312;2022-07-17T04:00:28;5.63;;;2.13;;
31728;SDS011;18309;43.658;1.312;2022-07-17T04:02:54;9.57;;;1.75;;
31728;SDS011;18309;43.658;1.312;2022-07-17T04:05:19;6.55;;;1.45;;
31728;SDS011;18309;43.658;1.312;2022-07-17T04:07:45;5.38;;;1.63;;
31728;SDS011;18309;43.658;1.312;2022-07-17T04:10:12;4.70;;;1.92;;
31728;SDS011;18309;43.658;1.312;2022-07-17T04:12:39;10.20;;;1.90;;
31728;SDS011;18309;43.658;1.312;2022-07-17T04:15:05;1.88;;;1.40;;
31728;SDS011;18309;43.658;1.312;2022-07-17T04:17:32;3.35;;;1.77;;
31728;SDS011;18309;43.658;1.312;2022-07-17T04:19:58;5.72;;;1.90;;
31728;SDS011;18309;43.658;1.312;2022-07-17T04:22:23;10.10;;;1.83;;
31728;SDS011;18309;43.658;1.312;2022-07-17T04:24:50;7.28;;;1.83;;
31728;SDS011;18309;43.658;1.312;2022-07-17T04:27:16;3.95;;;1.80;;
31728;SDS011;18309;43.658;1.312;2022-07-17T04:29:41;4.18;;;1.98;;
31728;SDS011;18309;43.658;1.312;2022-07-17T04:32:07;4.22;;;1.70;;
31728;SDS011;18309;43.658;1.312;2022-07-17T04:34:33;4.18;;;1.73;;
31728;SDS011;18309;43.658;1.312;2022-07-17T04:36:59;6.20;;;1.77;;
31728;SDS011;18309;43.658;1.312;2022-07-17T04:39:26;3.42;;;1.58;;
31728;SDS011;18309;43.658;1.312;2022-07-17T04:41:52;4.60;;;1.70;;
31728;SDS011;18309;43.658;1.312;2022-07-17T04:44:18;5.90;;;1.52;;
31728;SDS011;18309;43.658;1.312;2022-07-17T04:46:44;4.22;;;1.73;;
31728;SDS011;18309;43.658;1.312;2022-07-17T04:49:10;5.13;;;2.05;;
31728;SDS011;18309;43.658;1.312;2022-07-17T04:51:36;4.90;;;1.95;;
31728;SDS011;18309;43.658;1.312;2022-07-17T04:54:02;3.08;;;1.73;;
31728;SDS011;18309;43.658;1.312;2022-07-17T04:56:28;6.22;;;2.00;;
31728;SDS011;18309;43.658;1.312;2022-07-17T04:58:53;5.95;;;2.03;;
31728;SDS011;18309;43.658;1.312;2022-07-17T05:01:19;6.72;;;2.00;;
31728;SDS011;18309;43.658;1.312;2022-07-17T05:03:45;5.88;;;1.98;;
31728;SDS011;18309;43.658;1.312;2022-07-17T05:06:10;3.45;;;1.73;;
31728;SDS011;18309;43.658;1.312;2022-07-17T05:08:36;6.70;;;1.42;;
31728;SDS011;18309;43.658;1.312;2022-07-17T05:11:02;4.53;;;1.58;;
31728;SDS011;18309;43.658;1.312;2022-07-17T05:13:28;4.47;;;1.75;;
31728;SDS011;18309;43.658;1.312;2022-07-17T05:15:54;4.03;;;1.45;;
31728;SDS011;18309;43.658;1.312;2022-07-17T05:18:19;8.07;;;2.15;;
31728;SDS011;18309;43.658;1.312;2022-07-17T05:20:45;12.05;;;2.47;;
31728;SDS011;18309;43.658;1.312;2022-07-17T05:23:11;11.48;;;2.50;;
31728;SDS011;18309;43.658;1.312;2022-07-17T05:25:37;9.27;;;2.80;;
31728;SDS011;18309;43.658;1.312;2022-07-17T05:28:03;5.32;;;2.78;;
31728;SDS011;18309;43.658;1.312;2022-07-17T05:30:29;7.22;;;2.78;;
31728;SDS011;18309;43.658;1.312;2022-07-17T05:32:55;6.40;;;3.13;;
31728;SDS011;18309;43.658;1.312;2022-07-17T05:35:20;9.25;;;2.90;;
31728;SDS011;18309;43.658;1.312;2022-07-17T05:37:46;7.35;;;2.35;;
31728;SDS011;18309;43.658;1.312;2022-07-17T05:40:12;12.82;;;3.20;;
31728;SDS011;18309;43.658;1.312;2022-07-17T05:42:37;15.15;;;3.38;;
31728;SDS011;18309;43.658;1.312;2022-07-17T05:45:03;8.70;;;3.30;;
31728;SDS011;18309;43.658;1.312;2022-07-17T05:47:30;7.63;;;4.32;;
31728;SDS011;18309;43.658;1.312;2022-07-17T05:49:55;9.25;;;4.00;;
31728;SDS011;18309;43.658;1.312;2022-07-17T05:52:21;11.20;;;4.70;;
31728;SDS011;18309;43.658;1.312;2022-07-17T05:54:47;9.50;;;4.57;;
31728;SDS011;18309;43.658;1.312;2022-07-17T05:57:13;7.47;;;4.75;;
31728;SDS011;18309;43.658;1.312;2022-07-17T05:59:39;11.00;;;5.25;;
31728;SDS011;18309;43.658;1.312;2022-07-17T06:02:04;8.02;;;4.85;;
31728;SDS011;18309;43.658;1.312;2022-07-17T06:04:30;11.25;;;5.03;;
31728;SDS011;18309;43.658;1.312;2022-07-17T06:06:56;8.73;;;5.15;;
31728;SDS011;18309;43.658;1.312;2022-07-17T06:09:22;10.25;;;5.00;;
31728;SDS011;18309;43.658;1.312;2022-07-17T06:11:48;11.40;;;5.40;;
31728;SDS011;18309;43.658;1.312;2022-07-17T06:14:13;9.05;;;5.13;;
31728;SDS011;18309;43.658;1.312;2022-07-17T06:16:39;11.85;;;5.35;;
31728;SDS011;18309;43.658;1.312;2022-07-17T06:19:05;13.88;;;5.50;;
31728;SDS011;18309;43.658;1.312;2022-07-17T06:21:31;11.90;;;4.90;;
31728;SDS011;18309;43.658;1.312;2022-07-17T06:23:56;13.48;;;5.32;;
31728;SDS011;18309;43.658;1.312;2022-07-17T06:26:22;13.05;;;4.60;;
31728;SDS011;18309;43.658;1.312;2022-07-17T06:28:48;8.55;;;4.45;;
31728;SDS011;18309;43.658;1.312;2022-07-17T06:31:14;11.80;;;4.30;;
31728;SDS011;18309;43.658;1.312;2022-07-17T06:33:39;13.27;;;5.55;;
31728;SDS011;18309;43.658;1.312;2022-07-17T06:36:05;9.80;;;5.20;;
31728;SDS011;18309;43.658;1.312;2022-07-17T06:38:32;10.30;;;5.70;;
31728;SDS011;18309;43.658;1.312;2022-07-17T06:40:58;9.48;;;5.45;;
31728;SDS011;18309;43.658;1.312;2022-07-17T06:43:24;16.70;;;5.70;;
31728;SDS011;18309;43.658;1.312;2022-07-17T06:45:50;10.07;;;6.03;;
31728;SDS011;18309;43.658;1.312;2022-07-17T06:48:19;14.85;;;6.38;;
31728;SDS011;18309;43.658;1.312;2022-07-17T06:50:45;11.75;;;5.82;;
31728;SDS011;18309;43.658;1.312;2022-07-17T06:53:11;14.02;;;6.63;;
31728;SDS011;18309;43.658;1.312;2022-07-17T06:55:37;10.13;;;6.18;;
31728;SDS011;18309;43.658;1.312;2022-07-17T06:58:04;12.57;;;5.97;;
31728;SDS011;18309;43.658;1.312;2022-07-17T07:00:29;15.68;;;6.50;;
31728;SDS011;18309;43.658;1.312;2022-07-17T07:02:55;12.82;;;5.55;;
31728;SDS011;18309;43.658;1.312;2022-07-17T07:05:21;17.38;;;5.80;;
31728;SDS011;18309;43.658;1.312;2022-07-17T07:07:47;9.15;;;5.45;;
31728;SDS011;18309;43.658;1.312;2022-07-17T07:10:12;10.75;;;5.50;;
31728;SDS011;18309;43.658;1.312;2022-07-17T07:12:38;9.23;;;5.97;;
31728;SDS011;18309;43.658;1.312;2022-07-17T07:15:04;10.02;;;5.80;;
31728;SDS011;18309;43.658;1.312;2022-07-17T07:17:30;13.20;;;6.00;;
31728;SDS011;18309;43.658;1.312;2022-07-17T07:19:57;11.15;;;6.63;;
31728;SDS011;18309;43.658;1.312;2022-07-17T07:22:23;14.20;;;6.20;;
31728;SDS011;18309;43.658;1.312;2022-07-17T07:24:49;16.30;;;6.97;;
31728;SDS011;18309;43.658;1.312;2022-07-17T07:27:14;15.43;;;6.80;;
31728;SDS011;18309;43.658;1.312;2022-07-17T07:29:40;11.85;;;6.53;;
31728;SDS011;18309;43.658;1.312;2022-07-17T07:32:06;11.68;;;6.10;;
31728;SDS011;18309;43.658;1.312;2022-07-17T07:34:32;17.27;;;6.68;;
31728;SDS011;18309;43.658;1.312;2022-07-17T07:36:57;17.48;;;7.00;;
31728;SDS011;18309;43.658;1.312;2022-07-17T07:39:23;12.30;;;7.38;;
31728;SDS011;18309;43.658;1.312;2022-07-17T07:41:49;11.85;;;7.05;;
31728;SDS011;18309;43.658;1.312;2022-07-17T07:44:15;9.02;;;6.72;;
31728;SDS011;18309;43.658;1.312;2022-07-17T07:46:40;11.10;;;6.90;;
31728;SDS011;18309;43.658;1.312;2022-07-17T07:49:06;14.80;;;6.80;;
31728;SDS011;18309;43.658;1.312;2022-07-17T07:51:32;22.95;;;6.70;;
31728;SDS011;18309;43.658;1.312;2022-07-17T07:53:57;10.98;;;6.20;;
31728;SDS011;18309;43.658;1.312;2022-07-17T07:56:23;11.00;;;6.95;;
31728;SDS011;18309;43.658;1.312;2022-07-17T07:58:48;11.32;;;5.85;;
31728;SDS011;18309;43.658;1.312;2022-07-17T08:01:14;12.25;;;6.38;;
31728;SDS011;18309;43.658;1.312;2022-07-17T08:03:40;19.70;;;6.30;;
31728;SDS011;18309;43.658;1.312;2022-07-17T08:06:06;8.68;;;5.63;;
31728;SDS011;18309;43.658;1.312;2022-07-17T08:08:31;8.93;;;5.90;;
31728;SDS011;18309;43.658;1.312;2022-07-17T08:10:57;13.15;;;5.88;;
31728;SDS011;18309;43.658;1.312;2022-07-17T08:13:23;12.65;;;5.93;;
31728;SDS011;18309;43.658;1.312;2022-07-17T08:15:48;13.32;;;5.85;;
31728;SDS011;18309;43.658;1.312;2022-07-17T08:18:14;12.88;;;5.35;;
31728;SDS011;18309;43.658;1.312;2022-07-17T08:20:40;13.55;;;5.40;;
31728;SDS011;18309;43.658;1.312;2022-07-17T08:23:06;8.63;;;4.85;;
31728;SDS011;18309;43.658;1.312;2022-07-17T08:25:31;18.33;;;5.22;;
31728;SDS011;18309;43.658;1.312;2022-07-17T08:27:58;5.85;;;4.90;;
31728;SDS011;18309;43.658;1.312;2022-07-17T08:30:24;7.47;;;4.65;;
31728;SDS011;18309;43.658;1.312;2022-07-17T08:32:49;10.10;;;4.50;;
31728;SDS011;18309;43.658;1.312;2022-07-17T08:35:15;8.98;;;4.50;;
31728;SDS011;18309;43.658;1.312;2022-07-17T08:37:42;5.38;;;3.63;;
31728;SDS011;18309;43.658;1.312;2022-07-17T08:40:14;6.55;;;3.85;;
31728;SDS011;18309;43.658;1.312;2022-07-17T08:42:44;8.52;;;4.40;;
31728;SDS011;18309;43.658;1.312;2022-07-17T08:45:10;13.63;;;4.20;;
31728;SDS011;18309;43.658;1.312;2022-07-17T08:47:37;12.52;;;3.53;;
31728;SDS011;18309;43.658;1.312;2022-07-17T08:50:04;15.45;;;4.97;;
31728;SDS011;18309;43.658;1.312;2022-07-17T08:52:30;10.85;;;4.45;;
31728;SDS011;18309;43.658;1.312;2022-07-17T08:54:56;6.80;;;4.07;;
31728;SDS011;18309;43.658;1.312;2022-07-17T08:57:22;8.95;;;3.80;;
31728;SDS011;18309;43.658;1.312;2022-07-17T08:59:48;5.03;;;3.78;;
31728;SDS011;18309;43.658;1.312;2022-07-17T09:02:14;8.90;;;3.67;;
31728;SDS011;18309;43.658;1.312;2022-07-17T09:04:40;5.95;;;3.92;;
31728;SDS011;18309;43.658;1.312;2022-07-17T09:07:05;9.15;;;3.63;;
31728;SDS011;18309;43.658;1.312;2022-07-17T09:09:32;8.23;;;4.18;;
31728;SDS011;18309;43.658;1.312;2022-07-17T09:12:01;8.80;;;4.32;;
31728;SDS011;18309;43.658;1.312;2022-07-17T09:14:39;6.18;;;3.60;;
31728;SDS011;18309;43.658;1.312;2022-07-17T09:17:10;7.85;;;4.50;;
31728;SDS011;18309;43.658;1.312;2022-07-17T09:22:12;13.50;;;3.67;;
31728;SDS011;18309;43.658;1.312;2022-07-17T09:24:55;14.20;;;4.55;;
31728;SDS011;18309;43.658;1.312;2022-07-17T09:30:01;7.80;;;3.95;;
31728;SDS011;18309;43.658;1.312;2022-07-17T09:32:44;6.88;;;3.90;;
31728;SDS011;18309;43.658;1.312;2022-07-17T09:35:10;9.45;;;4.13;;
31728;SDS011;18309;43.658;1.312;2022-07-17T09:37:37;11.75;;;4.22;;
31728;SDS011;18309;43.658;1.312;2022-07-17T09:40:10;6.28;;;3.92;;
31728;SDS011;18309;43.658;1.312;2022-07-17T09:42:57;6.60;;;4.00;;
31728;SDS011;18309;43.658;1.312;2022-07-17T09:45:23;8.48;;;4.25;;
31728;SDS011;18309;43.658;1.312;2022-07-17T09:47:49;9.35;;;4.00;;
31728;SDS011;18309;43.658;1.312;2022-07-17T09:50:17;5.75;;;3.85;;
31728;SDS011;18309;43.658;1.312;2022-07-17T09:52:44;8.40;;;4.10;;
31728;SDS011;18309;43.658;1.312;2022-07-17T09:55:10;11.82;;;4.60;;
31728;SDS011;18309;43.658;1.312;2022-07-17T09:57:36;6.85;;;4.10;;
31728;SDS011;18309;43.658;1.312;2022-07-17T10:00:07;5.40;;;4.20;;
31728;SDS011;18309;43.658;1.312;2022-07-17T10:02:37;5.78;;;3.05;;
31728;SDS011;18309;43.658;1.312;2022-07-17T10:05:10;6.57;;;4.07;;
31728;SDS011;18309;43.658;1.312;2022-07-17T10:07:40;11.07;;;3.85;;
31728;SDS011;18309;43.658;1.312;2022-07-17T10:10:10;6.03;;;3.95;;
31728;SDS011;18309;43.658;1.312;2022-07-17T10:12:37;8.48;;;3.90;;
31728;SDS011;18309;43.658;1.312;2022-07-17T10:15:05;10.25;;;3.88;;
31728;SDS011;18309;43.658;1.312;2022-07-17T10:17:32;4.47;;;2.83;;
31728;SDS011;18309;43.658;1.312;2022-07-17T10:19:58;5.97;;;2.90;;
31728;SDS011;18309;43.658;1.312;2022-07-17T10:22:24;7.68;;;2.85;;
31728;SDS011;18309;43.658;1.312;2022-07-17T10:27:20;5.78;;;2.90;;
31728;SDS011;18309;43.658;1.312;2022-07-17T10:29:58;8.85;;;3.25;;
31728;SDS011;18309;43.658;1.312;2022-07-17T10:32:28;5.93;;;3.13;;
31728;SDS011;18309;43.658;1.312;2022-07-17T10:35:02;10.70;;;2.80;;
31728;SDS011;18309;43.658;1.312;2022-07-17T10:37:37;7.53;;;3.42;;
31728;SDS011;18309;43.658;1.312;2022-07-17T10:45:17;5.07;;;2.90;;
31728;SDS011;18309;43.658;1.312;2022-07-17T10:47:57;6.45;;;2.75;;
31728;SDS011;18309;43.658;1.312;2022-07-17T10:50:35;7.75;;;3.00;;
31728;SDS011;18309;43.658;1.312;2022-07-17T10:55:46;7.38;;;2.50;;
31728;SDS011;18309;43.658;1.312;2022-07-17T10:58:21;5.70;;;2.70;;
31728;SDS011;18309;43.658;1.312;2022-07-17T11:01:03;6.63;;;2.80;;
31728;SDS011;18309;43.658;1.312;2022-07-17T11:03:40;6.65;;;2.75;;
31728;SDS011;18309;43.658;1.312;2022-07-17T11:06:12;5.25;;;3.00;;
31728;SDS011;18309;43.658;1.312;2022-07-17T11:14:13;4.60;;;2.78;;
31728;SDS011;18309;43.658;1.312;2022-07-17T11:16:46;8.90;;;3.45;;
31728;SDS011;18309;43.658;1.312;2022-07-17T11:22:07;3.33;;;2.08;;
31728;SDS011;18309;43.658;1.312;2022-07-17T11:27:05;6.90;;;2.70;;
31728;SDS011;18309;43.658;1.312;2022-07-17T11:29:37;2.92;;;2.20;;
31728;SDS011;18309;43.658;1.312;2022-07-17T11:32:04;6.25;;;1.88;;
31728;SDS011;18309;43.658;1.312;2022-07-17T11:34:30;4.78;;;2.50;;
31728;SDS011;18309;43.658;1.312;2022-07-17T11:37:03;4.10;;;2.40;;
31728;SDS011;18309;43.658;1.312;2022-07-17T11:42:09;6.18;;;3.13;;
31728;SDS011;18309;43.658;1.312;2022-07-17T11:44:36;4.82;;;2.45;;
31728;SDS011;18309;43.658;1.312;2022-07-17T11:47:02;7.10;;;2.50;;
31728;SDS011;18309;43.658;1.312;2022-07-17T11:49:32;4.07;;;2.22;;
31728;SDS011;18309;43.658;1.312;2022-07-17T11:52:10;8.05;;;2.60;;
31728;SDS011;18309;43.658;1.312;2022-07-17T11:54:50;9.82;;;2.28;;
31728;SDS011;18309;43.658;1.312;2022-07-17T11:57:20;5.82;;;2.38;;
31728;SDS011;18309;43.658;1.312;2022-07-17T11:59:47;13.23;;;2.45;;
31728;SDS011;18309;43.658;1.312;2022-07-17T12:02:14;7.40;;;2.22;;
31728;SDS011;18309;43.658;1.312;2022-07-17T12:07:18;8.23;;;2.35;;
31728;SDS011;18309;43.658;1.312;2022-07-17T12:09:45;2.90;;;1.90;;
31728;SDS011;18309;43.658;1.312;2022-07-17T12:12:27;5.45;;;2.08;;
31728;SDS011;18309;43.658;1.312;2022-07-17T12:14:59;5.07;;;2.28;;
31728;SDS011;18309;43.658;1.312;2022-07-17T12:17:25;3.58;;;1.98;;
31728;SDS011;18309;43.658;1.312;2022-07-17T12:20:05;4.22;;;2.30;;
31728;SDS011;18309;43.658;1.312;2022-07-17T12:22:42;2.80;;;1.80;;
31728;SDS011;18309;43.658;1.312;2022-07-17T12:27:48;7.90;;;2.78;;
31728;SDS011;18309;43.658;1.312;2022-07-17T12:30:14;3.85;;;2.40;;
31728;SDS011;18309;43.658;1.312;2022-07-17T12:32:40;7.38;;;2.25;;
31728;SDS011;18309;43.658;1.312;2022-07-17T12:35:06;2.85;;;2.28;;
31728;SDS011;18309;43.658;1.312;2022-07-17T12:37:32;6.45;;;1.85;;
31728;SDS011;18309;43.658;1.312;2022-07-17T12:39:58;4.20;;;1.83;;
31728;SDS011;18309;43.658;1.312;2022-07-17T12:42:24;10.77;;;2.40;;
31728;SDS011;18309;43.658;1.312;2022-07-17T12:44:50;3.35;;;2.00;;
31728;SDS011;18309;43.658;1.312;2022-07-17T12:47:15;3.00;;;2.10;;
31728;SDS011;18309;43.658;1.312;2022-07-17T12:49:41;5.85;;;2.05;;
31728;SDS011;18309;43.658;1.312;2022-07-17T12:52:07;2.72;;;1.90;;
31728;SDS011;18309;43.658;1.312;2022-07-17T12:54:32;3.00;;;1.50;;
31728;SDS011;18309;43.658;1.312;2022-07-17T12:56:58;2.90;;;1.40;;
31728;SDS011;18309;43.658;1.312;2022-07-17T12:59:24;3.80;;;1.70;;
31728;SDS011;18309;43.658;1.312;2022-07-17T13:01:49;2.65;;;1.20;;
31728;SDS011;18309;43.658;1.312;2022-07-17T13:04:15;5.13;;;1.50;;
31728;SDS011;18309;43.658;1.312;2022-07-17T13:06:41;7.47;;;1.10;;
31728;SDS011;18309;43.658;1.312;2022-07-17T13:09:07;2.30;;;1.30;;
31728;SDS011;18309;43.658;1.312;2022-07-17T13:11:32;3.80;;;1.85;;
31728;SDS011;18309;43.658;1.312;2022-07-17T13:13:58;3.25;;;1.58;;
31728;SDS011;18309;43.658;1.312;2022-07-17T13:16:26;3.35;;;1.80;;
31728;SDS011;18309;43.658;1.312;2022-07-17T13:18:51;2.63;;;1.60;;
31728;SDS011;18309;43.658;1.312;2022-07-17T13:21:17;6.93;;;2.17;;
31728;SDS011;18309;43.658;1.312;2022-07-17T13:23:43;4.18;;;1.70;;
31728;SDS011;18309;43.658;1.312;2022-07-17T13:26:08;2.47;;;1.50;;
31728;SDS011;18309;43.658;1.312;2022-07-17T13:28:34;1.67;;;1.30;;
31728;SDS011;18309;43.658;1.312;2022-07-17T13:31:00;4.40;;;1.77;;
31728;SDS011;18309;43.658;1.312;2022-07-17T13:33:26;2.58;;;1.58;;
31728;SDS011;18309;43.658;1.312;2022-07-17T13:35:51;3.35;;;1.60;;
31728;SDS011;18309;43.658;1.312;2022-07-17T13:38:19;3.50;;;1.70;;
31728;SDS011;18309;43.658;1.312;2022-07-17T13:40:45;3.13;;;1.70;;
31728;SDS011;18309;43.658;1.312;2022-07-17T13:43:10;1.67;;;1.17;;
31728;SDS011;18309;43.658;1.312;2022-07-17T13:45:36;4.30;;;1.67;;
31728;SDS011;18309;43.658;1.312;2022-07-17T13:48:02;2.78;;;1.70;;
31728;SDS011;18309;43.658;1.312;2022-07-17T13:50:28;4.72;;;1.70;;
31728;SDS011;18309;43.658;1.312;2022-07-17T13:52:54;3.40;;;1.30;;
31728;SDS011;18309;43.658;1.312;2022-07-17T13:55:20;3.38;;;1.25;;
31728;SDS011;18309;43.658;1.312;2022-07-17T13:57:46;3.90;;;1.60;;
31728;SDS011;18309;43.658;1.312;2022-07-17T14:00:12;2.20;;;1.52;;
31728;SDS011;18309;43.658;1.312;2022-07-17T14:02:38;2.88;;;1.38;;
31728;SDS011;18309;43.658;1.312;2022-07-17T14:05:04;4.53;;;1.30;;
31728;SDS011;18309;43.658;1.312;2022-07-17T14:07:33;2.22;;;1.23;;
31728;SDS011;18309;43.658;1.312;2022-07-17T14:09:59;2.33;;;1.20;;
31728;SDS011;18309;43.658;1.312;2022-07-17T14:12:25;2.08;;;1.20;;
31728;SDS011;18309;43.658;1.312;2022-07-17T14:14:50;3.67;;;1.40;;
31728;SDS011;18309;43.658;1.312;2022-07-17T14:17:16;1.35;;;1.20;;
31728;SDS011;18309;43.658;1.312;2022-07-17T14:19:43;4.35;;;1.20;;
31728;SDS011;18309;43.658;1.312;2022-07-17T14:22:09;3.67;;;1.48;;
31728;SDS011;18309;43.658;1.312;2022-07-17T14:24:34;3.92;;;1.25;;
31728;SDS011;18309;43.658;1.312;2022-07-17T14:27:00;2.03;;;1.13;;
31728;SDS011;18309;43.658;1.312;2022-07-17T14:29:26;2.38;;;1.40;;
31728;SDS011;18309;43.658;1.312;2022-07-17T14:31:52;3.72;;;1.13;;
31728;SDS011;18309;43.658;1.312;2022-07-17T14:34:17;2.45;;;1.45;;
31728;SDS011;18309;43.658;1.312;2022-07-17T14:36:44;4.60;;;1.33;;
31728;SDS011;18309;43.658;1.312;2022-07-17T14:39:10;13.70;;;1.67;;
31728;SDS011;18309;43.658;1.312;2022-07-17T14:41:36;3.22;;;1.65;;
31728;SDS011;18309;43.658;1.312;2022-07-17T14:44:03;3.97;;;1.02;;
31728;SDS011;18309;43.658;1.312;2022-07-17T14:46:29;3.25;;;1.23;;
31728;SDS011;18309;43.658;1.312;2022-07-17T14:48:55;1.95;;;1.00;;
31728;SDS011;18309;43.658;1.312;2022-07-17T14:51:20;3.40;;;1.52;;
31728;SDS011;18309;43.658;1.312;2022-07-17T14:53:46;3.63;;;1.25;;
31728;SDS011;18309;43.658;1.312;2022-07-17T14:56:12;4.30;;;1.27;;
31728;SDS011;18309;43.658;1.312;2022-07-17T14:58:37;3.80;;;1.98;;
31728;SDS011;18309;43.658;1.312;2022-07-17T15:01:03;3.58;;;2.20;;
31728;SDS011;18309;43.658;1.312;2022-07-17T15:03:29;2.78;;;1.90;;
31728;SDS011;18309;43.658;1.312;2022-07-17T15:05:55;4.82;;;1.52;;
31728;SDS011;18309;43.658;1.312;2022-07-17T15:08:21;2.63;;;1.40;;
31728;SDS011;18309;43.658;1.312;2022-07-17T15:10:47;2.85;;;1.70;;
31728;SDS011;18309;43.658;1.312;2022-07-17T15:13:13;2.90;;;1.42;;
31728;SDS011;18309;43.658;1.312;2022-07-17T15:15:38;2.33;;;1.20;;
31728;SDS011;18309;43.658;1.312;2022-07-17T15:18:04;1.48;;;1.35;;